LGL86MN LFMN-ELLX
Flight info
| Callsign | LGL86MN |
|---|---|
| Flight time | 1h 5m |
| Altitude | 34000 |
| Route | IRMAR DCT KINES DCT VANAS DCT MOBLO DCT UBIMA DCT GILIR DCT PENDU DCT IXILU DCT EPL G21 GIVOR |
| Aircraft | A20N/M-SDE2E3FGHIRWXY/LB1 |
Departure
| Time | 2026-05-01 13:30 |
|---|---|
| Airport | Nice-Côte d'Azur Airport (LFMN) |
Arrival
| Time | 2026-05-01 14:36 |
|---|---|
| Airport | Luxembourg-Findel International Airport (ELLX) |
| Time | Latitude | Longitude | Altitude | Speed | Heading |
|---|---|---|---|---|---|
| 2026-05-01 13:00 | 43.66430 | 7.21321 | 11 ft | 0 kts | 327° |
| 2026-05-01 13:07 | 43.66510 | 7.21531 | 21 ft | 0 kts | 316° |
| 2026-05-01 13:19 | 43.66504 | 7.21538 | 25 ft | 2 kts | 316° |
| 2026-05-01 13:20 | 43.66493 | 7.21553 | 22 ft | 2 kts | 316° |
| 2026-05-01 13:20 | 43.66481 | 7.21569 | 25 ft | 3 kts | 316° |
| 2026-05-01 13:20 | 43.66467 | 7.21593 | 26 ft | 3 kts | 278° |
| 2026-05-01 13:21 | 43.66476 | 7.21629 | 26 ft | 0 kts | 227° |
| 2026-05-01 13:23 | 43.66474 | 7.21627 | 24 ft | 2 kts | 227° |
| 2026-05-01 13:23 | 43.66449 | 7.21588 | 22 ft | 9 kts | 227° |
| 2026-05-01 13:23 | 43.66394 | 7.21509 | 21 ft | 14 kts | 227° |
| 2026-05-01 13:23 | 43.66320 | 7.21401 | 21 ft | 17 kts | 226° |
| 2026-05-01 13:24 | 43.66228 | 7.21271 | 21 ft | 21 kts | 225° |
| 2026-05-01 13:24 | 43.66124 | 7.21127 | 21 ft | 20 kts | 226° |
| 2026-05-01 13:24 | 43.66039 | 7.21052 | 21 ft | 14 kts | 170° |
| 2026-05-01 13:25 | 43.65848 | 7.21003 | 21 ft | 18 kts | 224° |
| 2026-05-01 13:25 | 43.65748 | 7.20867 | 21 ft | 22 kts | 224° |
| 2026-05-01 13:25 | 43.65634 | 7.20711 | 22 ft | 24 kts | 225° |
| 2026-05-01 13:25 | 43.65507 | 7.20537 | 22 ft | 27 kts | 225° |
| 2026-05-01 13:26 | 43.65372 | 7.20350 | 22 ft | 27 kts | 225° |
| 2026-05-01 13:26 | 43.65264 | 7.20312 | 22 ft | 15 kts | 153° |
| 2026-05-01 13:26 | 43.65191 | 7.20414 | 22 ft | 16 kts | 135° |
| 2026-05-01 13:26 | 43.65094 | 7.20508 | 22 ft | 18 kts | 161° |
| 2026-05-01 13:27 | 43.64976 | 7.20443 | 23 ft | 20 kts | 226° |
| 2026-05-01 13:27 | 43.64868 | 7.20294 | 22 ft | 23 kts | 225° |
| 2026-05-01 13:27 | 43.64763 | 7.20184 | 22 ft | 1 kts | 184° |
| 2026-05-01 13:28 | 43.64705 | 7.20277 | 22 ft | 12 kts | 82° |
| 2026-05-01 13:28 | 43.64754 | 7.20362 | 22 ft | 2 kts | 45° |
| 2026-05-01 13:29 | 43.64757 | 7.20365 | 22 ft | 0 kts | 45° |
| 2026-05-01 13:29 | 43.64757 | 7.20366 | 22 ft | 1 kts | 45° |
| 2026-05-01 13:30 | 43.66587 | 7.22941 | 632 ft | 147 kts | 61° |
| 2026-05-01 13:31 | 43.66310 | 7.25497 | 1656 ft | 146 kts | 131° |
| 2026-05-01 13:31 | 43.63961 | 7.28388 | 3046 ft | 169 kts | 137° |
| 2026-05-01 13:32 | 43.61986 | 7.30725 | 3963 ft | 208 kts | 142° |
| 2026-05-01 13:33 | 43.57548 | 7.29891 | 6146 ft | 241 kts | 212° |
| 2026-05-01 13:33 | 43.55004 | 7.26897 | 7734 ft | 245 kts | 246° |
| 2026-05-01 13:34 | 43.55173 | 7.22437 | 9245 ft | 242 kts | 307° |
| 2026-05-01 13:34 | 43.57358 | 7.18844 | 10737 ft | 248 kts | 315° |
| 2026-05-01 13:35 | 43.59621 | 7.15213 | 12211 ft | 253 kts | 312° |
| 2026-05-01 13:35 | 43.60807 | 7.13404 | 12893 ft | 255 kts | 324° |
| 2026-05-01 13:35 | 43.64052 | 7.11449 | 14195 ft | 268 kts | 346° |
| 2026-05-01 13:36 | 43.65903 | 7.10654 | 14394 ft | 291 kts | 345° |
| 2026-05-01 13:36 | 43.67908 | 7.09778 | 14606 ft | 314 kts | 345° |
| 2026-05-01 13:36 | 43.72382 | 7.07804 | 15097 ft | 357 kts | 344° |
| 2026-05-01 13:37 | 43.74767 | 7.06739 | 15722 ft | 363 kts | 344° |
| 2026-05-01 13:37 | 43.77184 | 7.05660 | 16429 ft | 368 kts | 344° |
| 2026-05-01 13:37 | 43.79633 | 7.04568 | 17053 ft | 373 kts | 344° |
| 2026-05-01 13:37 | 43.82120 | 7.03463 | 17270 ft | 376 kts | 344° |
| 2026-05-01 13:38 | 43.87098 | 7.01246 | 17484 ft | 378 kts | 344° |
| 2026-05-01 13:38 | 43.89614 | 7.00124 | 18191 ft | 380 kts | 344° |
| 2026-05-01 13:38 | 43.92139 | 6.98998 | 18843 ft | 383 kts | 343° |
| 2026-05-01 13:39 | 43.94687 | 6.97860 | 19460 ft | 386 kts | 343° |
| 2026-05-01 13:39 | 43.97248 | 6.96716 | 20057 ft | 389 kts | 343° |
| 2026-05-01 13:39 | 43.99839 | 6.95557 | 20661 ft | 392 kts | 343° |
| 2026-05-01 13:39 | 44.02407 | 6.94407 | 21252 ft | 395 kts | 343° |
| 2026-05-01 13:40 | 44.05038 | 6.93229 | 21844 ft | 398 kts | 343° |
| 2026-05-01 13:40 | 44.07688 | 6.92041 | 22416 ft | 401 kts | 343° |
| 2026-05-01 13:40 | 44.10363 | 6.90841 | 22992 ft | 404 kts | 343° |
| 2026-05-01 13:40 | 44.13063 | 6.89651 | 23562 ft | 408 kts | 346° |
| 2026-05-01 13:41 | 44.15804 | 6.88838 | 24085 ft | 409 kts | 353° |
| 2026-05-01 13:41 | 44.18678 | 6.88400 | 24574 ft | 412 kts | 355° |
| 2026-05-01 13:41 | 44.21495 | 6.87982 | 25056 ft | 413 kts | 354° |
| 2026-05-01 13:41 | 44.24368 | 6.87546 | 25532 ft | 416 kts | 354° |
| 2026-05-01 13:42 | 44.27251 | 6.87106 | 25988 ft | 418 kts | 354° |
| 2026-05-01 13:42 | 44.30163 | 6.86663 | 26447 ft | 420 kts | 353° |
| 2026-05-01 13:42 | 44.33085 | 6.86220 | 26884 ft | 423 kts | 353° |
| 2026-05-01 13:42 | 44.36019 | 6.85775 | 27304 ft | 426 kts | 353° |
| 2026-05-01 13:43 | 44.38971 | 6.85328 | 27708 ft | 428 kts | 353° |
| 2026-05-01 13:43 | 44.41945 | 6.84877 | 28086 ft | 431 kts | 353° |
| 2026-05-01 13:43 | 44.44941 | 6.84423 | 28468 ft | 434 kts | 353° |
| 2026-05-01 13:43 | 44.47948 | 6.83966 | 28839 ft | 436 kts | 353° |
| 2026-05-01 13:44 | 44.50982 | 6.83504 | 29204 ft | 439 kts | 353° |
| 2026-05-01 13:44 | 44.53993 | 6.83046 | 29569 ft | 441 kts | 353° |
| 2026-05-01 13:44 | 44.57052 | 6.82580 | 29914 ft | 444 kts | 353° |
| 2026-05-01 13:44 | 44.60136 | 6.82110 | 30272 ft | 446 kts | 353° |
| 2026-05-01 13:45 | 44.63228 | 6.81637 | 30563 ft | 448 kts | 353° |
| 2026-05-01 13:45 | 44.66341 | 6.81161 | 30908 ft | 449 kts | 353° |
| 2026-05-01 13:45 | 44.69422 | 6.80689 | 31239 ft | 451 kts | 353° |
| 2026-05-01 13:45 | 44.72546 | 6.80211 | 31615 ft | 451 kts | 353° |
| 2026-05-01 13:46 | 44.75656 | 6.79734 | 32055 ft | 449 kts | 353° |
| 2026-05-01 13:46 | 44.78757 | 6.79258 | 32506 ft | 447 kts | 353° |
| 2026-05-01 13:46 | 44.81849 | 6.78939 | 32953 ft | 445 kts | 356° |
| 2026-05-01 13:46 | 44.84938 | 6.78748 | 33369 ft | 443 kts | 356° |
| 2026-05-01 13:47 | 44.88007 | 6.78547 | 33801 ft | 441 kts | 356° |
| 2026-05-01 13:47 | 44.91065 | 6.78343 | 34177 ft | 438 kts | 356° |
| 2026-05-01 13:47 | 44.94109 | 6.78140 | 34289 ft | 436 kts | 356° |
| 2026-05-01 13:48 | 45.00178 | 6.77735 | 34292 ft | 436 kts | 355° |
| 2026-05-01 13:48 | 45.06223 | 6.77332 | 34286 ft | 442 kts | 356° |
| 2026-05-01 13:49 | 45.12458 | 6.76917 | 34288 ft | 454 kts | 356° |
| 2026-05-01 13:49 | 45.18777 | 6.76498 | 34289 ft | 449 kts | 356° |
| 2026-05-01 13:49 | 45.21853 | 6.76296 | 34284 ft | 437 kts | 355° |
| 2026-05-01 13:50 | 45.24880 | 6.76094 | 34286 ft | 436 kts | 355° |
| 2026-05-01 13:50 | 45.30992 | 6.75683 | 34279 ft | 441 kts | 355° |
| 2026-05-01 13:51 | 45.37091 | 6.75274 | 34275 ft | 441 kts | 355° |
| 2026-05-01 13:51 | 45.43224 | 6.74863 | 34274 ft | 441 kts | 356° |
| 2026-05-01 13:52 | 45.49365 | 6.74448 | 34268 ft | 442 kts | 356° |
| 2026-05-01 13:52 | 45.55525 | 6.74026 | 34274 ft | 443 kts | 355° |
| 2026-05-01 13:53 | 45.61694 | 6.73604 | 34270 ft | 444 kts | 356° |
| 2026-05-01 13:53 | 45.70976 | 6.72968 | 34269 ft | 446 kts | 356° |
| 2026-05-01 13:54 | 45.77146 | 6.72544 | 34270 ft | 447 kts | 356° |
| 2026-05-01 13:54 | 45.83378 | 6.72115 | 34273 ft | 448 kts | 356° |
| 2026-05-01 13:55 | 45.89632 | 6.71689 | 34266 ft | 449 kts | 356° |
| 2026-05-01 13:55 | 45.95852 | 6.71265 | 34268 ft | 449 kts | 356° |
| 2026-05-01 13:56 | 46.02109 | 6.70836 | 34270 ft | 450 kts | 356° |
| 2026-05-01 13:56 | 46.08365 | 6.70407 | 34264 ft | 450 kts | 355° |
| 2026-05-01 13:57 | 46.13510 | 6.69414 | 34261 ft | 449 kts | 345° |
| 2026-05-01 13:57 | 46.20477 | 6.66273 | 34257 ft | 448 kts | 340° |
| 2026-05-01 13:58 | 46.26379 | 6.63431 | 34252 ft | 450 kts | 340° |
| 2026-05-01 13:58 | 46.32321 | 6.60548 | 34260 ft | 451 kts | 340° |
| 2026-05-01 13:59 | 46.38269 | 6.57645 | 34258 ft | 452 kts | 340° |
| 2026-05-01 13:59 | 46.44236 | 6.54725 | 34264 ft | 452 kts | 340° |
| 2026-05-01 14:00 | 46.50203 | 6.51797 | 34267 ft | 453 kts | 340° |
| 2026-05-01 14:00 | 46.56177 | 6.48860 | 34260 ft | 454 kts | 340° |
| 2026-05-01 14:01 | 46.62155 | 6.45913 | 34265 ft | 448 kts | 340° |
| 2026-05-01 14:01 | 46.65033 | 6.44494 | 34265 ft | 436 kts | 340° |
| 2026-05-01 14:01 | 46.67898 | 6.43078 | 34266 ft | 436 kts | 340° |
| 2026-05-01 14:02 | 46.73700 | 6.40203 | 34263 ft | 441 kts | 340° |
| 2026-05-01 14:02 | 46.79506 | 6.37321 | 34260 ft | 441 kts | 340° |
| 2026-05-01 14:03 | 46.85331 | 6.34424 | 34258 ft | 442 kts | 340° |
| 2026-05-01 14:03 | 46.91144 | 6.31525 | 34249 ft | 442 kts | 340° |
| 2026-05-01 14:04 | 46.96972 | 6.28613 | 34247 ft | 442 kts | 340° |
| 2026-05-01 14:04 | 47.01817 | 6.26187 | 34244 ft | 442 kts | 340° |
| 2026-05-01 14:05 | 47.08471 | 6.22381 | 34231 ft | 441 kts | 332° |
| 2026-05-01 14:05 | 47.13981 | 6.18393 | 34230 ft | 441 kts | 333° |
| 2026-05-01 14:06 | 47.19516 | 6.14415 | 34231 ft | 442 kts | 332° |
| 2026-05-01 14:06 | 47.25016 | 6.10440 | 34231 ft | 443 kts | 332° |
| 2026-05-01 14:07 | 47.30559 | 6.06430 | 34227 ft | 444 kts | 334° |
| 2026-05-01 14:08 | 47.39578 | 6.03393 | 34222 ft | 448 kts | 359° |
| 2026-05-01 14:08 | 47.45903 | 6.03536 | 34235 ft | 462 kts | 0° |
| 2026-05-01 14:09 | 47.51291 | 6.03638 | 34236 ft | 466 kts | 0° |
| 2026-05-01 14:09 | 47.57767 | 6.03773 | 34235 ft | 464 kts | 0° |
| 2026-05-01 14:10 | 47.64231 | 6.03916 | 34241 ft | 464 kts | 0° |
| 2026-05-01 14:10 | 47.70699 | 6.04061 | 34234 ft | 464 kts | 1° |
| 2026-05-01 14:11 | 47.77120 | 6.04216 | 34240 ft | 464 kts | 1° |
| 2026-05-01 14:11 | 47.86805 | 6.04527 | 34242 ft | 464 kts | 1° |
| 2026-05-01 14:12 | 47.93265 | 6.04732 | 34242 ft | 464 kts | 1° |
| 2026-05-01 14:12 | 47.99727 | 6.04934 | 34244 ft | 464 kts | 1° |
| 2026-05-01 14:13 | 48.06178 | 6.05135 | 34241 ft | 464 kts | 1° |
| 2026-05-01 14:13 | 48.12638 | 6.05336 | 33973 ft | 463 kts | 1° |
| 2026-05-01 14:14 | 48.15859 | 6.05437 | 33702 ft | 462 kts | 1° |
| 2026-05-01 14:14 | 48.19024 | 6.05536 | 33439 ft | 462 kts | 1° |
| 2026-05-01 14:14 | 48.22246 | 6.05638 | 33168 ft | 462 kts | 1° |
| 2026-05-01 14:14 | 48.25467 | 6.05739 | 32902 ft | 463 kts | 1° |
| 2026-05-01 14:15 | 48.28682 | 6.05989 | 32452 ft | 464 kts | 8° |
| 2026-05-01 14:15 | 48.31827 | 6.07039 | 31729 ft | 465 kts | 19° |
| 2026-05-01 14:15 | 48.34791 | 6.08949 | 31093 ft | 461 kts | 30° |
| 2026-05-01 14:15 | 48.37498 | 6.11486 | 30561 ft | 455 kts | 34° |
| 2026-05-01 14:16 | 48.40144 | 6.14058 | 29966 ft | 451 kts | 33° |
| 2026-05-01 14:16 | 48.42763 | 6.16592 | 29428 ft | 444 kts | 33° |
| 2026-05-01 14:16 | 48.45351 | 6.19100 | 28882 ft | 438 kts | 33° |
| 2026-05-01 14:16 | 48.47898 | 6.21574 | 28360 ft | 432 kts | 33° |
| 2026-05-01 14:17 | 48.50416 | 6.24024 | 27830 ft | 427 kts | 33° |
| 2026-05-01 14:17 | 48.52894 | 6.26441 | 27306 ft | 422 kts | 34° |
| 2026-05-01 14:17 | 48.55348 | 6.28839 | 26792 ft | 417 kts | 34° |
| 2026-05-01 14:17 | 48.57746 | 6.31184 | 26276 ft | 414 kts | 34° |
| 2026-05-01 14:18 | 48.60149 | 6.33538 | 25774 ft | 410 kts | 34° |
| 2026-05-01 14:18 | 48.62529 | 6.35872 | 25256 ft | 406 kts | 34° |
| 2026-05-01 14:18 | 48.64953 | 6.38024 | 24761 ft | 403 kts | 27° |
| 2026-05-01 14:18 | 48.66676 | 6.39203 | 24364 ft | 403 kts | 22° |
| 2026-05-01 14:19 | 48.70210 | 6.40881 | 23659 ft | 400 kts | 15° |
| 2026-05-01 14:19 | 48.72884 | 6.41943 | 23175 ft | 394 kts | 15° |
| 2026-05-01 14:19 | 48.75525 | 6.43009 | 22685 ft | 390 kts | 16° |
| 2026-05-01 14:19 | 48.78132 | 6.44067 | 22190 ft | 386 kts | 16° |
| 2026-05-01 14:20 | 48.80712 | 6.45114 | 21700 ft | 382 kts | 16° |
| 2026-05-01 14:20 | 48.85780 | 6.47166 | 20742 ft | 376 kts | 16° |
| 2026-05-01 14:20 | 48.88304 | 6.48188 | 20256 ft | 374 kts | 16° |
| 2026-05-01 14:21 | 48.90842 | 6.49215 | 19762 ft | 372 kts | 16° |
| 2026-05-01 14:21 | 48.93334 | 6.50226 | 19265 ft | 371 kts | 16° |
| 2026-05-01 14:21 | 48.95821 | 6.51236 | 18795 ft | 369 kts | 16° |
| 2026-05-01 14:22 | 49.00762 | 6.53244 | 17795 ft | 365 kts | 16° |
| 2026-05-01 14:22 | 49.03205 | 6.54237 | 17308 ft | 362 kts | 16° |
| 2026-05-01 14:22 | 49.05633 | 6.55226 | 16828 ft | 360 kts | 16° |
| 2026-05-01 14:22 | 49.08044 | 6.56210 | 16357 ft | 357 kts | 16° |
| 2026-05-01 14:23 | 49.10415 | 6.57179 | 15883 ft | 355 kts | 16° |
| 2026-05-01 14:23 | 49.12801 | 6.58152 | 15412 ft | 354 kts | 16° |
| 2026-05-01 14:23 | 49.15175 | 6.59123 | 14945 ft | 353 kts | 16° |
| 2026-05-01 14:23 | 49.17544 | 6.60095 | 14475 ft | 351 kts | 16° |
| 2026-05-01 14:24 | 49.19902 | 6.61063 | 14003 ft | 350 kts | 16° |
| 2026-05-01 14:24 | 49.22305 | 6.61617 | 13510 ft | 350 kts | 0° |
| 2026-05-01 14:24 | 49.24708 | 6.61110 | 13043 ft | 348 kts | 343° |
| 2026-05-01 14:24 | 49.26944 | 6.59714 | 12599 ft | 346 kts | 335° |
| 2026-05-01 14:25 | 49.29134 | 6.58197 | 12146 ft | 345 kts | 335° |
| 2026-05-01 14:25 | 49.31311 | 6.56689 | 11678 ft | 343 kts | 335° |
| 2026-05-01 14:25 | 49.33478 | 6.55194 | 11380 ft | 342 kts | 335° |
| 2026-05-01 14:25 | 49.35673 | 6.53680 | 11286 ft | 355 kts | 335° |
| 2026-05-01 14:26 | 49.37907 | 6.52137 | 11267 ft | 357 kts | 335° |
| 2026-05-01 14:26 | 49.42390 | 6.49036 | 11260 ft | 345 kts | 335° |
| 2026-05-01 14:26 | 49.44526 | 6.47557 | 11260 ft | 329 kts | 335° |
| 2026-05-01 14:27 | 49.46570 | 6.46129 | 11166 ft | 316 kts | 335° |
| 2026-05-01 14:27 | 49.48549 | 6.44724 | 10824 ft | 311 kts | 335° |
| 2026-05-01 14:27 | 49.50486 | 6.43353 | 10466 ft | 302 kts | 335° |
| 2026-05-01 14:28 | 49.54306 | 6.40661 | 9707 ft | 304 kts | 334° |
| 2026-05-01 14:28 | 49.55998 | 6.38850 | 9323 ft | 299 kts | 310° |
| 2026-05-01 14:28 | 49.57055 | 6.36156 | 8825 ft | 292 kts | 285° |
| 2026-05-01 14:28 | 49.57252 | 6.33098 | 8349 ft | 288 kts | 259° |
| 2026-05-01 14:29 | 49.56627 | 6.30190 | 7867 ft | 287 kts | 243° |
| 2026-05-01 14:29 | 49.55798 | 6.27380 | 7362 ft | 286 kts | 243° |
| 2026-05-01 14:30 | 49.53358 | 6.19208 | 5894 ft | 275 kts | 243° |
| 2026-05-01 14:30 | 49.52565 | 6.16542 | 5378 ft | 272 kts | 243° |
| 2026-05-01 14:30 | 49.51785 | 6.13915 | 4894 ft | 269 kts | 243° |
| 2026-05-01 14:31 | 49.50235 | 6.08709 | 3926 ft | 264 kts | 245° |
| 2026-05-01 14:31 | 49.49903 | 6.06004 | 3560 ft | 262 kts | 273° |
| 2026-05-01 14:31 | 49.50443 | 6.03372 | 3214 ft | 260 kts | 303° |
| 2026-05-01 14:31 | 49.51718 | 6.01537 | 3011 ft | 244 kts | 335° |
| 2026-05-01 14:32 | 49.53285 | 6.01013 | 2975 ft | 220 kts | 10° |
| 2026-05-01 14:32 | 49.54662 | 6.01754 | 2985 ft | 203 kts | 33° |
| 2026-05-01 14:32 | 49.55750 | 6.03036 | 3004 ft | 198 kts | 50° |
| 2026-05-01 14:32 | 49.56557 | 6.04730 | 3069 ft | 192 kts | 63° |
| 2026-05-01 14:33 | 49.57171 | 6.06436 | 2962 ft | 173 kts | 66° |
| 2026-05-01 14:33 | 49.57742 | 6.07935 | 2845 ft | 154 kts | 64° |
| 2026-05-01 14:33 | 49.58259 | 6.09316 | 2592 ft | 145 kts | 65° |
| 2026-05-01 14:33 | 49.58749 | 6.10692 | 2361 ft | 150 kts | 66° |
| 2026-05-01 14:34 | 49.59256 | 6.12094 | 2186 ft | 150 kts | 64° |
| 2026-05-01 14:34 | 49.59774 | 6.13483 | 1999 ft | 148 kts | 64° |
| 2026-05-01 14:34 | 49.60312 | 6.14851 | 1856 ft | 150 kts | 64° |
| 2026-05-01 14:34 | 49.60828 | 6.16260 | 1600 ft | 151 kts | 65° |
| 2026-05-01 14:35 | 49.61339 | 6.17619 | 1379 ft | 150 kts | 65° |
| 2026-05-01 14:35 | 49.61845 | 6.18988 | 1199 ft | 143 kts | 65° |
| 2026-05-01 14:35 | 49.62271 | 6.20164 | 1228 ft | 102 kts | 62° |
| 2026-05-01 14:35 | 49.62544 | 6.20889 | 1246 ft | 62 kts | 60° |
| 2026-05-01 14:36 | 49.62767 | 6.21205 | 1244 ft | 38 kts | 31° |
| 2026-05-01 14:36 | 49.62872 | 6.21301 | 1231 ft | 0 kts | 29° |
| 2026-05-01 14:36 | 49.62873 | 6.21301 | 1231 ft | 1 kts | 29° |
| 2026-05-01 14:37 | 49.62900 | 6.21322 | 1230 ft | 9 kts | 19° |
| 2026-05-01 14:37 | 49.62984 | 6.21368 | 1231 ft | 15 kts | 47° |
| 2026-05-01 14:37 | 49.63044 | 6.21532 | 1228 ft | 21 kts | 62° |
| 2026-05-01 14:37 | 49.63097 | 6.21717 | 1228 ft | 18 kts | 66° |
| 2026-05-01 14:38 | 49.63182 | 6.21741 | 1228 ft | 15 kts | 333° |
| 2026-05-01 14:38 | 49.63250 | 6.21670 | 1230 ft | 7 kts | 315° |
| 2026-05-01 14:38 | 49.63294 | 6.21644 | 1231 ft | 2 kts | 354° |
| 2026-05-01 14:38 | 49.63314 | 6.21642 | 1231 ft | 4 kts | 357° |
| 2026-05-01 14:39 | 49.63331 | 6.21641 | 1232 ft | 2 kts | 355° |
| 2026-05-01 14:39 | 49.63335 | 6.21640 | 1232 ft | 0 kts | 355° |